Forside
METAR-TAF:

METAR-TAF

Lufthavne :

Owatonna Degner Regional Airport

Owatonna, Minnesota, USA

Breddekreds: 44-07N, længdekreds: 093-15W, højde: 350 m

Aktuelle vejr

Denne rapport blev lavet for 29 minutter siden, kl. 19:33 UTC
Vind 8 kt fra sydsydøst
Temperatur 2°C
Fugtighed 75%
Tryk 1014 hPa
Sigt: 16.1 km
skyfri

METAR: KOWA 221933Z AUTO 16008KT 10SM CLR 02/M02 A2995 RMK AO2

Tid: 14:02 (20:02 UTC)


TAF: fraværende

Vejrobservationer og prognoser fra mere end 4000 lufthavne (METAR og TAF).

De gule og røde prikker repræsenterer de meteorologiske stationer.

Flyt musen over at se navnet på stationen.

Så klik over at se vejr observationer og prognoser.

At skifte det kort: Klik på de grønne knapper med et sort kors for at zoome ind; på den grønne knap med en bindestreg for at zoome ud; eller på de grønne pile for tilstødende kort.


METAR-TAF: